Time;durP1;ratioP1;P1;durP2;ratioP2;P2;SDS_P1;SDS_P2;PMS_P1;PMS_P2;Temp;Humidity;BMP_temperature;BMP_pressure;BME280_temperature;BME280_humidity;BME280_pressure;Samples;Min_cycle;Max_cycle;Signal;HPM_P1;HPM_P2
2021/01/02 00:01:51;;;;;;;23.98;10.13;;;-0.60;99.90;;;;;;1952526;73;21152;-71
2021/01/02 00:04:17;;;;;;;22.70;9.65;;;-0.60;99.90;;;;;;1953025;71;21066;-72
2021/01/02 00:06:43;;;;;;;20.62;9.53;;;-0.40;99.90;;;;;;1949937;71;21064;-71
2021/01/02 00:09:10;;;;;;;22.77;8.93;;;-0.30;99.90;;;;;;1957981;71;21074;-71
2021/01/02 00:11:36;;;;;;;24.47;10.70;;;-0.30;99.90;;;;;;1956503;71;21485;-72
2021/01/02 00:14:02;;;;;;;17.55;9.18;;;-0.30;99.90;;;;;;1951252;72;21659;-72
2021/01/02 00:16:28;;;;;;;21.27;8.98;;;-0.30;99.90;;;;;;1943498;71;21423;-72
2021/01/02 00:18:54;;;;;;;14.50;8.08;;;-0.30;99.90;;;;;;1957016;72;21489;-72
2021/01/02 00:21:20;;;;;;;18.45;9.58;;;-0.30;99.90;;;;;;1954363;71;21567;-71
2021/01/02 00:23:46;;;;;;;15.40;9.13;;;-0.30;99.90;;;;;;1959668;71;21135;-72
2021/01/02 00:26:12;;;;;;;18.52;9.13;;;-0.30;99.90;;;;;;1955294;72;21039;-71
2021/01/02 00:28:39;;;;;;;18.00;9.05;;;-0.30;99.90;;;;;;1952512;72;21070;-71
2021/01/02 00:31:05;;;;;;;19.75;9.80;;;-0.50;99.90;;;;;;1962314;71;21067;-71
2021/01/02 00:33:31;;;;;;;16.20;9.15;;;-0.30;99.90;;;;;;1945133;71;21140;-72
2021/01/02 00:35:57;;;;;;;15.80;8.45;;;-0.50;99.90;;;;;;1954378;72;21039;-71
2021/01/02 00:38:23;;;;;;;19.70;9.28;;;-0.40;99.90;;;;;;1958291;72;21066;-71
2021/01/02 00:40:49;;;;;;;23.73;10.20;;;-0.30;99.90;;;;;;1957030;72;21066;-72
2021/01/02 00:43:15;;;;;;;15.72;8.78;;;-0.40;99.90;;;;;;1958609;71;21140;-72
2021/01/02 00:45:41;;;;;;;16.05;9.55;;;-0.30;99.90;;;;;;1958702;72;21039;-70
2021/01/02 00:48:07;;;;;;;17.45;9.10;;;-0.30;99.90;;;;;;1951760;72;21127;-70
2021/01/02 00:50:34;;;;;;;14.55;8.70;;;-0.30;99.90;;;;;;1951943;71;21145;-71
2021/01/02 00:53:00;;;;;;;15.25;8.20;;;-0.40;99.90;;;;;;1953754;71;21074;-71
2021/01/02 00:55:26;;;;;;;17.05;8.98;;;-0.50;99.90;;;;;;1952681;71;21053;-72
2021/01/02 00:57:52;;;;;;;19.02;9.35;;;-0.50;99.90;;;;;;1950354;71;21165;-72
2021/01/02 01:00:18;;;;;;;19.75;8.73;;;-0.40;99.90;;;;;;1957725;71;21227;-71
2021/01/02 01:02:44;;;;;;;23.87;8.93;;;-0.20;99.90;;;;;;1951801;72;21190;-70
2021/01/02 01:05:10;;;;;;;17.67;9.70;;;-0.30;99.90;;;;;;1957952;71;21078;-72
2021/01/02 01:07:36;;;;;;;17.37;8.93;;;-0.40;99.90;;;;;;1949741;72;21584;-72
2021/01/02 01:10:03;;;;;;;15.00;8.15;;;-0.40;99.90;;;;;;1957050;72;21446;-71
2021/01/02 01:12:29;;;;;;;16.50;9.03;;;-0.40;99.90;;;;;;1947325;72;21451;-71
2021/01/02 01:14:55;;;;;;;17.48;8.65;;;-0.30;99.90;;;;;;1943584;72;21741;-71
2021/01/02 01:17:21;;;;;;;19.57;8.88;;;-0.40;99.90;;;;;;1958328;71;21152;-72
2021/01/02 01:19:47;;;;;;;17.37;7.85;;;-0.40;99.90;;;;;;1952668;71;21082;-72
2021/01/02 01:22:13;;;;;;;20.80;8.43;;;-0.50;99.90;;;;;;1960686;71;21151;-71
2021/01/02 01:24:40;;;;;;;12.65;7.33;;;-0.50;99.90;;;;;;1952445;71;21035;-71
2021/01/02 01:27:06;;;;;;;19.30;8.70;;;-0.40;99.90;;;;;;1947433;71;21066;-72
2021/01/02 01:29:32;;;;;;;19.20;7.80;;;-0.40;99.90;;;;;;1954037;71;21071;-71
2021/01/02 01:31:58;;;;;;;19.30;8.00;;;-0.50;99.90;;;;;;1953120;72;21144;-72
2021/01/02 01:34:24;;;;;;;21.60;9.10;;;-0.50;99.90;;;;;;1941667;72;21039;-71
2021/01/02 01:36:50;;;;;;;15.58;8.23;;;-0.50;99.90;;;;;;1939909;72;21136;-71
2021/01/02 01:39:16;;;;;;;12.50;7.50;;;-0.50;99.90;;;;;;1956100;72;21074;-72
2021/01/02 01:41:42;;;;;;;17.57;9.05;;;-0.50;99.90;;;;;;1943052;71;21078;-72
2021/01/02 01:44:09;;;;;;;16.87;8.13;;;-0.50;99.90;;;;;;1948208;72;21416;-71
2021/01/02 01:46:35;;;;;;;12.47;7.50;;;-0.70;99.90;;;;;;1944822;72;21479;-72
2021/01/02 01:49:01;;;;;;;13.48;7.33;;;-0.60;99.90;;;;;;1958051;71;21548;-71
2021/01/02 01:51:27;;;;;;;14.50;7.58;;;-0.60;99.90;;;;;;1950369;72;21559;-72
2021/01/02 01:53:53;;;;;;;18.15;7.87;;;-0.70;99.90;;;;;;1943030;72;21443;-72
2021/01/02 01:56:20;;;;;;;17.62;7.87;;;-0.70;99.90;;;;;;1949173;72;21110;-72
2021/01/02 01:58:46;;;;;;;14.10;7.85;;;-0.70;99.90;;;;;;1958201;71;21074;-72
2021/01/02 02:01:12;;;;;;;19.37;8.35;;;-0.70;99.90;;;;;;1959667;71;21066;-71
2021/01/02 02:03:38;;;;;;;15.63;8.03;;;-0.70;99.90;;;;;;1944395;72;21043;-71
2021/01/02 02:06:04;;;;;;;14.78;8.08;;;-0.50;99.90;;;;;;1943416;72;21184;-71
2021/01/02 02:08:30;;;;;;;15.65;8.00;;;-0.50;99.90;;;;;;1953131;72;21067;-72
2021/01/02 02:10:56;;;;;;;14.65;7.20;;;-0.40;99.90;;;;;;1949716;72;21078;-72
2021/01/02 02:13:23;;;;;;;12.45;7.17;;;-0.50;99.90;;;;;;1956737;72;21043;-72
2021/01/02 02:15:49;;;;;;;12.93;7.00;;;-0.40;99.90;;;;;;1951447;71;21152;-72
2021/01/02 02:18:15;;;;;;;13.62;7.83;;;-0.40;99.90;;;;;;1955687;72;21251;-72
2021/01/02 02:20:41;;;;;;;14.18;7.20;;;-0.40;99.90;;;;;;1949809;72;21634;-71
2021/01/02 02:23:07;;;;;;;12.00;6.97;;;-0.40;99.90;;;;;;1952046;72;21420;-72
2021/01/02 02:25:33;;;;;;;17.02;7.85;;;-0.30;99.90;;;;;;1944381;71;21489;-72
2021/01/02 02:27:59;;;;;;;14.20;7.45;;;-0.30;99.90;;;;;;1945366;71;21494;-72
2021/01/02 02:30:25;;;;;;;11.53;6.92;;;-0.20;99.90;;;;;;1954853;72;21435;-71
2021/01/02 02:32:52;;;;;;;10.95;6.97;;;-0.20;99.90;;;;;;1954734;71;21156;-71
2021/01/02 02:35:18;;;;;;;15.85;8.48;;;-0.20;99.90;;;;;;1957160;71;21286;-72
2021/01/02 02:37:44;;;;;;;11.73;7.60;;;-0.20;99.90;;;;;;1958702;71;21071;-72
2021/01/02 02:40:10;;;;;;;15.38;7.92;;;-0.30;99.90;;;;;;1958822;73;21067;-72
2021/01/02 02:42:37;;;;;;;14.30;7.85;;;-0.20;99.90;;;;;;1954173;72;21066;-72
2021/01/02 02:45:03;;;;;;;17.17;6.85;;;-0.30;99.90;;;;;;1955655;72;21070;-72
2021/01/02 02:47:29;;;;;;;14.18;6.90;;;-0.10;99.90;;;;;;1957261;71;21075;-72
2021/01/02 02:49:55;;;;;;;13.65;7.60;;;-0.10;99.90;;;;;;1953435;71;21066;-71
2021/01/02 02:52:21;;;;;;;13.28;7.55;;;-0.10;99.90;;;;;;1950790;71;21052;-70
2021/01/02 02:54:47;;;;;;;9.93;6.78;;;0.00;99.90;;;;;;1957603;71;21132;-70
2021/01/02 02:57:14;;;;;;;14.55;6.87;;;0.00;99.90;;;;;;1956302;72;21080;-70
2021/01/02 02:59:40;;;;;;;13.18;6.53;;;0.00;99.90;;;;;;1938597;72;21066;-71
2021/01/02 03:02:06;;;;;;;12.53;6.95;;;0.00;99.90;;;;;;1947095;72;21079;-72
2021/01/02 03:04:32;;;;;;;8.78;5.87;;;-0.10;99.90;;;;;;1945336;72;21189;-71
2021/01/02 03:06:59;;;;;;;10.43;6.58;;;0.00;99.90;;;;;;1958555;72;21502;-71
2021/01/02 03:09:25;;;;;;;11.97;7.17;;;-0.10;99.90;;;;;;1950135;72;21439;-70
2021/01/02 03:11:51;;;;;;;12.45;6.65;;;-0.10;99.90;;;;;;1952814;71;21074;-71
2021/01/02 03:14:17;;;;;;;10.13;6.37;;;0.00;99.90;;;;;;1942465;71;21080;-70
2021/01/02 03:16:43;;;;;;;14.90;6.75;;;-0.10;99.90;;;;;;1949483;72;21078;-70
2021/01/02 03:19:09;;;;;;;13.15;7.42;;;-0.20;99.90;;;;;;1955418;72;21090;-70
2021/01/02 03:21:35;;;;;;;11.25;6.70;;;-0.30;99.90;;;;;;1952019;72;21265;-71
2021/01/02 03:24:01;;;;;;;15.35;8.10;;;-0.20;99.90;;;;;;1954684;72;21067;-72
2021/01/02 03:26:28;;;;;;;10.65;7.03;;;-0.20;99.90;;;;;;1933281;72;21139;-71
2021/01/02 03:28:54;;;;;;;14.18;7.08;;;-0.20;99.90;;;;;;1949124;72;21039;-72
2021/01/02 03:31:20;;;;;;;12.65;8.05;;;-0.20;99.90;;;;;;1952269;72;21185;-72
2021/01/02 03:33:46;;;;;;;12.63;7.30;;;-0.20;99.90;;;;;;1956746;72;21141;-72
2021/01/02 03:36:12;;;;;;;13.78;7.45;;;-0.20;99.90;;;;;;1954648;72;21143;-72
2021/01/02 03:38:38;;;;;;;17.87;8.35;;;-0.20;99.90;;;;;;1957143;71;21039;-73
2021/01/02 03:41:04;;;;;;;13.45;7.83;;;-0.20;99.90;;;;;;1947020;72;21062;-71
2021/01/02 03:43:30;;;;;;;14.15;7.90;;;-0.20;99.90;;;;;;1946000;71;21139;-72
2021/01/02 03:45:57;;;;;;;12.05;7.40;;;-0.10;99.90;;;;;;1954446;71;21098;-71
2021/01/02 03:48:23;;;;;;;14.47;7.75;;;-0.10;99.90;;;;;;1952336;71;21062;-72
2021/01/02 03:50:49;;;;;;;20.50;8.40;;;-0.20;99.90;;;;;;1946038;72;21156;-71
2021/01/02 03:53:15;;;;;;;17.55;8.95;;;-0.20;99.90;;;;;;1954960;71;21070;-72
2021/01/02 03:55:41;;;;;;;14.73;8.70;;;-0.20;99.90;;;;;;1952964;72;21035;-72
2021/01/02 03:58:07;;;;;;;13.55;7.87;;;-0.20;99.90;;;;;;1959158;71;21642;-72
2021/01/02 04:00:33;;;;;;;11.80;7.35;;;-0.10;99.90;;;;;;1958261;72;21502;-72
2021/01/02 04:02:59;;;;;;;14.03;7.78;;;-0.10;99.90;;;;;;1951952;71;21548;-72
2021/01/02 04:05:25;;;;;;;15.95;8.13;;;0.00;99.90;;;;;;1955385;71;21439;-72
2021/01/02 04:07:52;;;;;;;20.20;7.67;;;0.10;99.90;;;;;;1953265;71;21062;-71
2021/01/02 04:10:18;;;;;;;12.23;7.35;;;0.20;99.90;;;;;;1951277;72;21139;-71
2021/01/02 04:12:44;;;;;;;14.63;8.05;;;0.20;99.90;;;;;;1951802;71;21135;-72
2021/01/02 04:15:10;;;;;;;13.88;7.30;;;0.20;99.90;;;;;;1954439;71;21109;-72
2021/01/02 04:17:36;;;;;;;10.98;6.90;;;0.20;99.90;;;;;;1954078;72;21058;-72
2021/01/02 04:20:04;;;;;;;13.03;7.45;;;0.20;99.90;;;;;;1949007;72;21166;-72
2021/01/02 04:22:32;;;;;;;14.47;7.42;;;0.20;99.90;;;;;;1956179;71;21047;-72
2021/01/02 04:24:58;;;;;;;16.48;8.65;;;0.20;99.90;;;;;;1953159;72;21072;-72
2021/01/02 04:27:24;;;;;;;18.48;7.72;;;0.30;99.90;;;;;;1946424;72;21466;-72
2021/01/02 04:29:50;;;;;;;11.22;6.90;;;0.30;99.90;;;;;;1947167;71;21477;-72
2021/01/02 04:32:16;;;;;;;12.85;7.20;;;0.20;99.90;;;;;;1952721;72;21479;-72
2021/01/02 04:34:42;;;;;;;12.47;7.22;;;0.20;99.90;;;;;;1947465;72;21431;-72
2021/01/02 04:37:08;;;;;;;18.75;7.78;;;0.20;99.90;;;;;;1952258;72;21062;-72
2021/01/02 04:39:34;;;;;;;13.90;7.35;;;0.30;99.90;;;;;;1958739;72;21125;-71
2021/01/02 04:42:01;;;;;;;14.93;7.83;;;0.30;99.90;;;;;;1954228;71;21135;-72
2021/01/02 04:44:27;;;;;;;14.55;8.23;;;0.40;99.90;;;;;;1957037;72;21149;-72
2021/01/02 04:46:53;;;;;;;14.83;9.00;;;0.40;99.90;;;;;;1958116;73;21062;-72
2021/01/02 04:49:19;;;;;;;16.62;7.95;;;0.20;99.90;;;;;;1958693;71;21047;-72
2021/01/02 04:51:45;;;;;;;17.75;7.50;;;0.20;99.90;;;;;;1948445;72;21281;-72
2021/01/02 04:54:11;;;;;;;10.65;7.15;;;0.20;99.90;;;;;;1949223;71;21063;-71
2021/01/02 04:56:40;;;;;;;16.50;8.13;;;0.20;99.90;;;;;;1959081;72;21074;-72
2021/01/02 04:59:06;;;;;;;15.65;7.62;;;0.30;99.90;;;;;;1950760;71;21074;-72
2021/01/02 05:01:32;;;;;;;13.30;6.92;;;0.40;99.90;;;;;;1950441;72;21078;-71
2021/01/02 05:03:59;;;;;;;15.48;7.30;;;0.40;99.90;;;;;;1949069;72;21110;-71
2021/01/02 05:06:25;;;;;;;12.30;6.85;;;0.40;99.90;;;;;;1939918;71;21156;-71
2021/01/02 05:08:51;;;;;;;10.63;6.40;;;0.40;99.90;;;;;;1949664;71;21066;-71
2021/01/02 05:11:17;;;;;;;10.72;7.17;;;0.50;99.90;;;;;;1946274;71;21140;-72
2021/01/02 05:13:43;;;;;;;13.75;7.12;;;0.50;99.90;;;;;;1950954;72;21114;-72
2021/01/02 05:16:09;;;;;;;17.92;7.70;;;0.60;99.90;;;;;;1956546;72;21061;-72
2021/01/02 05:18:35;;;;;;;18.85;7.60;;;0.60;99.90;;;;;;1959924;71;21077;-72
2021/01/02 05:21:01;;;;;;;11.00;6.95;;;0.60;99.90;;;;;;1953695;71;21066;-70
2021/01/02 05:23:28;;;;;;;15.60;6.47;;;0.60;99.90;;;;;;1948015;71;21080;-71
2021/01/02 05:25:54;;;;;;;11.73;7.15;;;0.60;99.90;;;;;;1954366;71;21040;-72
2021/01/02 05:28:20;;;;;;;13.48;7.37;;;0.60;99.90;;;;;;1958717;71;21108;-73
2021/01/02 05:30:46;;;;;;;11.43;6.70;;;0.60;99.90;;;;;;1959829;72;21075;-72
2021/01/02 05:33:12;;;;;;;11.65;6.87;;;0.60;99.90;;;;;;1958445;72;21081;-71
2021/01/02 05:35:38;;;;;;;11.65;7.53;;;0.70;99.90;;;;;;1960413;71;21074;-71
2021/01/02 05:38:05;;;;;;;13.20;6.47;;;0.80;99.90;;;;;;1956466;72;21153;-71
2021/01/02 05:40:31;;;;;;;12.20;6.85;;;0.70;99.90;;;;;;1956876;72;21147;-72
2021/01/02 05:42:57;;;;;;;11.20;6.92;;;0.80;99.90;;;;;;1955454;71;21051;-72
2021/01/02 05:45:23;;;;;;;11.20;6.03;;;0.80;99.90;;;;;;1950702;71;21066;-71
2021/01/02 05:47:49;;;;;;;12.58;6.92;;;0.80;99.90;;;;;;1946820;71;21079;-71
2021/01/02 05:50:15;;;;;;;12.00;6.47;;;0.80;99.90;;;;;;1952861;71;21062;-71
2021/01/02 05:52:41;;;;;;;17.32;7.47;;;0.70;99.90;;;;;;1943895;72;21082;-71
2021/01/02 05:55:07;;;;;;;15.05;7.62;;;0.70;99.90;;;;;;1939599;72;21074;-71
2021/01/02 05:57:34;;;;;;;10.70;6.83;;;0.80;99.90;;;;;;1962696;71;21434;-71
2021/01/02 06:00:00;;;;;;;12.88;7.17;;;0.70;99.90;;;;;;1958309;72;21963;-72
2021/01/02 06:02:26;;;;;;;12.75;7.50;;;0.70;99.90;;;;;;1946737;72;21279;-72
2021/01/02 06:04:52;;;;;;;11.60;7.22;;;0.80;99.90;;;;;;1955547;71;21136;-72
2021/01/02 06:07:18;;;;;;;9.80;6.75;;;0.80;99.90;;;;;;1953496;72;21151;-72
2021/01/02 06:09:44;;;;;;;12.47;6.72;;;0.90;99.90;;;;;;1958414;72;21136;-71
2021/01/02 06:12:10;;;;;;;12.55;6.72;;;0.80;99.90;;;;;;1942269;72;21117;-72
2021/01/02 06:14:36;;;;;;;14.23;8.50;;;0.80;99.90;;;;;;1954491;71;21074;-71
2021/01/02 06:17:03;;;;;;;11.80;7.30;;;0.80;99.90;;;;;;1956777;72;21189;-72
2021/01/02 06:19:29;;;;;;;10.58;6.67;;;0.80;99.90;;;;;;1951719;72;21188;-71
2021/01/02 06:21:55;;;;;;;13.93;7.60;;;0.90;99.90;;;;;;1952633;72;21192;-71
2021/01/02 06:24:21;;;;;;;21.07;6.62;;;0.90;99.90;;;;;;1956940;71;21498;-71
2021/01/02 06:26:47;;;;;;;13.35;7.35;;;0.90;99.90;;;;;;1952559;72;21474;-71
2021/01/02 06:29:13;;;;;;;13.80;7.60;;;0.80;99.90;;;;;;1951435;72;21466;-72
2021/01/02 06:31:39;;;;;;;14.80;8.20;;;0.80;99.90;;;;;;1956306;71;21066;-72
2021/01/02 06:34:06;;;;;;;27.32;9.10;;;0.70;99.90;;;;;;1959283;72;21066;-71
2021/01/02 06:36:33;;;;;;;17.57;7.75;;;0.80;99.90;;;;;;1953799;71;21152;-71
2021/01/02 06:38:59;;;;;;;14.55;7.42;;;0.80;99.90;;;;;;1951240;71;21070;-72
2021/01/02 06:41:25;;;;;;;20.10;8.75;;;0.90;99.90;;;;;;1954383;72;21155;-72
2021/01/02 06:43:51;;;;;;;18.15;8.53;;;0.90;99.90;;;;;;1949171;71;21148;-72
2021/01/02 06:46:17;;;;;;;20.97;8.53;;;0.90;99.90;;;;;;1952202;72;21152;-72
2021/01/02 06:48:43;;;;;;;17.10;9.28;;;0.90;99.90;;;;;;1939701;72;21036;-72
2021/01/02 06:51:09;;;;;;;20.82;9.53;;;0.90;99.90;;;;;;1957996;72;21144;-72
2021/01/02 06:53:36;;;;;;;13.90;7.97;;;0.80;99.90;;;;;;1956465;73;21062;-71
2021/01/02 06:56:02;;;;;;;17.67;8.18;;;0.90;99.90;;;;;;1952105;71;21070;-71
2021/01/02 06:58:28;;;;;;;17.82;9.10;;;1.00;99.90;;;;;;1953694;71;21066;-72
2021/01/02 07:00:54;;;;;;;22.00;8.58;;;0.80;99.90;;;;;;1957371;71;21086;-72
2021/01/02 07:03:20;;;;;;;15.50;8.25;;;0.90;99.90;;;;;;1959423;71;21035;-72
2021/01/02 07:05:50;;;;;;;20.40;9.30;;;0.80;99.90;;;;;;1951594;72;21584;-72
2021/01/02 07:08:14;;;;;;;16.70;8.78;;;0.90;99.90;;;;;;1952629;71;21103;-71
2021/01/02 07:10:40;;;;;;;18.90;8.33;;;0.90;99.90;;;;;;1951116;71;21079;-71
2021/01/02 07:13:06;;;;;;;20.60;9.20;;;1.00;99.90;;;;;;1950578;71;21074;-71
2021/01/02 07:15:32;;;;;;;26.80;9.70;;;0.90;99.90;;;;;;1956822;71;21086;-71
2021/01/02 07:17:58;;;;;;;20.20;8.65;;;0.90;99.90;;;;;;1948957;71;21124;-72
2021/01/02 07:20:25;;;;;;;22.05;8.90;;;0.90;99.90;;;;;;1943279;73;21467;-72
2021/01/02 07:22:51;;;;;;;21.75;9.55;;;0.90;99.90;;;;;;1951249;72;21588;-71
2021/01/02 07:25:17;;;;;;;22.17;8.53;;;0.90;99.90;;;;;;1947699;71;21463;-72
2021/01/02 07:27:44;;;;;;;15.13;7.47;;;0.90;99.90;;;;;;1950611;71;21193;-71
2021/01/02 07:30:10;;;;;;;16.60;8.08;;;1.00;99.90;;;;;;1947058;71;21074;-71
2021/01/02 07:32:36;;;;;;;22.27;7.90;;;0.90;99.90;;;;;;1954974;72;21551;-77
2021/01/02 07:35:02;;;;;;;16.55;7.95;;;0.90;99.90;;;;;;1951657;71;21462;-74
2021/01/02 07:37:28;;;;;;;17.55;8.65;;;0.90;99.90;;;;;;1946127;73;21042;-73
2021/01/02 07:39:54;;;;;;;18.52;8.13;;;1.00;99.90;;;;;;1958343;71;21039;-73
2021/01/02 07:42:21;;;;;;;19.75;8.95;;;1.00;99.90;;;;;;1951171;71;21153;-72
2021/01/02 07:44:47;;;;;;;19.15;8.70;;;1.00;99.90;;;;;;1945518;71;21615;-73
2021/01/02 07:47:13;;;;;;;13.40;8.33;;;1.00;99.90;;;;;;1947426;72;21112;-73
2021/01/02 07:49:39;;;;;;;12.65;7.58;;;1.10;99.90;;;;;;1949223;71;21070;-73
2021/01/02 07:52:05;;;;;;;15.60;8.68;;;1.10;99.90;;;;;;1953277;71;21140;-71
2021/01/02 07:54:31;;;;;;;18.17;7.25;;;1.10;99.90;;;;;;1952631;72;21074;-72
2021/01/02 07:56:58;;;;;;;16.85;8.80;;;1.00;99.90;;;;;;1955346;71;21035;-70
2021/01/02 07:59:24;;;;;;;22.30;9.25;;;0.90;99.90;;;;;;1955747;71;21129;-71
2021/01/02 08:01:51;;;;;;;18.15;8.25;;;0.90;99.90;;;;;;1955425;72;21075;-72
2021/01/02 08:04:17;;;;;;;13.43;7.62;;;1.00;99.90;;;;;;1954809;72;21510;-72
2021/01/02 08:06:43;;;;;;;17.45;8.20;;;1.00;99.90;;;;;;1954075;71;21074;-71
2021/01/02 08:09:09;;;;;;;17.20;8.93;;;1.00;99.90;;;;;;1958961;71;21135;-70
2021/01/02 08:11:36;;;;;;;17.23;8.13;;;1.10;99.90;;;;;;1955607;71;21078;-70
2021/01/02 08:14:02;;;;;;;24.20;9.18;;;1.10;99.90;;;;;;1956958;71;21078;-70
2021/01/02 08:16:28;;;;;;;15.90;8.48;;;1.10;99.90;;;;;;1943816;71;21105;-69
2021/01/02 08:18:54;;;;;;;12.75;7.75;;;1.10;99.90;;;;;;1958891;72;21143;-72
2021/01/02 08:21:20;;;;;;;25.15;8.53;;;1.20;99.90;;;;;;1956246;72;21078;-71
2021/01/02 08:23:46;;;;;;;14.65;7.00;;;1.20;99.90;;;;;;1948372;72;21486;-72
2021/01/02 08:26:12;;;;;;;18.87;8.55;;;1.20;99.90;;;;;;1954843;71;21528;-72
2021/01/02 08:28:38;;;;;;;12.13;7.28;;;1.20;99.90;;;;;;1948566;71;21270;-71
2021/01/02 08:31:05;;;;;;;18.90;7.12;;;1.20;99.90;;;;;;1947948;72;21067;-70
2021/01/02 08:33:31;;;;;;;17.17;8.80;;;1.20;99.90;;;;;;1958473;72;21035;-71
2021/01/02 08:35:57;;;;;;;21.57;8.63;;;1.20;99.90;;;;;;1954934;72;21139;-70
2021/01/02 08:38:23;;;;;;;15.30;8.50;;;1.10;99.90;;;;;;1956924;72;21148;-71
2021/01/02 08:40:49;;;;;;;17.02;7.95;;;1.10;99.90;;;;;;1957571;71;21073;-71
2021/01/02 08:43:15;;;;;;;20.80;8.28;;;1.20;99.90;;;;;;1957301;72;21140;-71
2021/01/02 08:45:43;;;;;;;14.90;8.08;;;1.10;99.90;;;;;;1944535;72;21125;-71
2021/01/02 08:48:09;;;;;;;14.18;7.50;;;1.20;99.90;;;;;;1942302;71;21051;-71
2021/01/02 08:50:35;;;;;;;17.85;7.10;;;1.30;99.90;;;;;;1948962;72;21047;-71
2021/01/02 08:53:01;;;;;;;14.50;7.53;;;1.30;99.90;;;;;;1954573;71;21064;-71
2021/01/02 08:55:27;;;;;;;12.15;7.37;;;1.40;99.90;;;;;;1957290;71;21031;-72
2021/01/02 08:57:53;;;;;;;17.40;8.10;;;1.40;99.90;;;;;;1943795;72;21069;-72
2021/01/02 09:00:19;;;;;;;16.50;8.05;;;1.50;99.90;;;;;;1950876;71;21058;-72
2021/01/02 09:02:46;;;;;;;13.75;7.72;;;1.50;99.90;;;;;;1952957;72;21148;-72
2021/01/02 09:05:12;;;;;;;14.78;7.70;;;1.50;99.90;;;;;;1957986;71;21254;-71
2021/01/02 09:07:38;;;;;;;12.10;7.15;;;1.60;99.90;;;;;;1951057;71;21044;-72
2021/01/02 09:10:04;;;;;;;15.03;8.20;;;1.50;99.90;;;;;;1938714;71;21152;-71
2021/01/02 09:12:30;;;;;;;22.70;7.37;;;1.40;99.90;;;;;;1941101;72;21065;-71
2021/01/02 09:14:56;;;;;;;14.05;7.62;;;1.40;99.90;;;;;;1950748;71;21078;-72
2021/01/02 09:17:22;;;;;;;18.27;8.15;;;1.50;99.90;;;;;;1954329;71;21074;-72
2021/01/02 09:19:48;;;;;;;11.50;7.28;;;1.50;99.90;;;;;;1958753;71;21078;-71
2021/01/02 09:22:15;;;;;;;19.42;7.85;;;1.50;99.90;;;;;;1957055;71;21454;-71
2021/01/02 09:24:41;;;;;;;18.67;7.85;;;1.60;99.90;;;;;;1958255;72;21466;-71
2021/01/02 09:27:07;;;;;;;12.60;7.57;;;1.80;99.90;;;;;;1948221;71;21478;-72
2021/01/02 09:29:33;;;;;;;15.00;7.85;;;1.90;99.90;;;;;;1952883;71;21147;-72
2021/01/02 09:31:59;;;;;;;16.77;7.53;;;1.70;99.90;;;;;;1946192;71;21074;-71
2021/01/02 09:34:25;;;;;;;20.20;8.50;;;1.50;99.90;;;;;;1957613;71;21067;-71
2021/01/02 09:36:51;;;;;;;14.95;7.28;;;1.70;99.90;;;;;;1958099;71;21122;-71
2021/01/02 09:39:17;;;;;;;19.62;7.12;;;1.90;99.90;;;;;;1951567;72;21513;-72
2021/01/02 09:41:44;;;;;;;14.03;7.17;;;1.90;99.90;;;;;;1961516;71;21423;-70
2021/01/02 09:44:11;;;;;;;11.03;6.37;;;2.00;99.90;;;;;;1951830;72;21070;-69
2021/01/02 09:46:37;;;;;;;10.98;6.78;;;2.10;99.90;;;;;;1958928;72;21074;-70
2021/01/02 09:49:03;;;;;;;12.82;6.28;;;2.10;99.90;;;;;;1942800;71;21086;-70
2021/01/02 09:51:29;;;;;;;10.45;6.47;;;2.30;99.90;;;;;;1956216;71;21117;-70
2021/01/02 09:53:55;;;;;;;15.45;6.35;;;2.20;99.90;;;;;;1958520;71;21462;-70
2021/01/02 09:56:21;;;;;;;12.18;6.08;;;2.30;99.90;;;;;;1958634;72;21525;-69
2021/01/02 09:58:48;;;;;;;10.65;6.33;;;2.30;99.90;;;;;;1954209;71;21802;-69
2021/01/02 10:01:14;;;;;;;15.90;5.53;;;2.30;99.90;;;;;;1958478;72;21144;-70
2021/01/02 10:03:40;;;;;;;14.25;6.28;;;2.30;99.90;;;;;;1954049;71;21183;-69
2021/01/02 10:06:06;;;;;;;9.50;5.37;;;2.30;99.90;;;;;;1957653;71;21277;-71
2021/01/02 10:08:32;;;;;;;13.08;7.03;;;2.20;99.90;;;;;;1954452;71;21074;-75
2021/01/02 10:10:58;;;;;;;12.43;7.05;;;2.20;99.90;;;;;;1955417;71;21136;-75
2021/01/02 10:13:24;;;;;;;13.38;7.45;;;2.30;99.90;;;;;;1945492;71;21113;-75
2021/01/02 10:15:50;;;;;;;13.35;7.47;;;2.40;99.90;;;;;;1941626;71;21120;-75
2021/01/02 10:18:16;;;;;;;15.85;7.35;;;2.40;99.90;;;;;;1950006;71;21217;-74
2021/01/02 10:20:43;;;;;;;14.65;7.62;;;2.60;99.90;;;;;;1951231;71;21074;-74
2021/01/02 10:23:09;;;;;;;14.28;7.42;;;2.50;99.90;;;;;;1960033;71;21069;-73
2021/01/02 10:25:35;;;;;;;11.90;7.00;;;2.40;99.90;;;;;;1949620;71;21082;-75
2021/01/02 10:28:01;;;;;;;12.65;6.70;;;2.70;99.90;;;;;;1959933;71;21098;-73
2021/01/02 10:30:27;;;;;;;13.40;6.95;;;2.80;99.90;;;;;;1960432;71;21156;-73
2021/01/02 10:32:53;;;;;;;10.28;6.08;;;3.00;99.90;;;;;;1955843;71;21555;-72
2021/01/02 10:35:19;;;;;;;11.53;6.42;;;3.00;99.90;;;;;;1951814;71;21467;-73
2021/01/02 10:37:45;;;;;;;12.28;6.40;;;2.70;99.90;;;;;;1954211;72;21490;-73
2021/01/02 10:42:57;;;;;;;12.55;6.40;;;2.70;99.90;;;;;;1927952;71;21074;-73
2021/01/02 10:45:23;;;;;;;14.87;7.85;;;2.60;99.90;;;;;;1928633;72;21070;-74
2021/01/02 10:47:49;;;;;;;16.17;7.30;;;2.70;99.90;;;;;;1951722;71;21172;-73
2021/01/02 10:50:15;;;;;;;12.50;7.00;;;2.80;99.90;;;;;;1934292;71;21323;-72
2021/01/02 10:52:41;;;;;;;11.50;7.20;;;2.70;99.90;;;;;;1958597;72;21027;-72
2021/01/02 10:55:08;;;;;;;14.28;7.62;;;2.70;99.90;;;;;;1949791;70;21066;-74
2021/01/02 10:57:34;;;;;;;11.73;6.80;;;2.50;99.90;;;;;;1954923;70;21057;-73
2021/01/02 11:00:00;;;;;;;14.07;6.85;;;2.50;99.90;;;;;;1951631;71;21223;-73
2021/01/02 11:02:26;;;;;;;14.35;6.87;;;2.80;99.90;;;;;;1971472;71;21120;-74
2021/01/02 11:04:52;;;;;;;14.15;8.20;;;3.00;99.90;;;;;;1942966;71;21258;-74
2021/01/02 11:07:23;;;;;;;17.20;7.25;;;3.10;99.90;;;;;;1956418;71;21031;-73
2021/01/02 11:09:46;;;;;;;10.50;6.12;;;3.20;99.90;;;;;;1947988;71;21437;-74
2021/01/02 11:12:12;;;;;;;13.22;6.75;;;3.00;99.90;;;;;;1926623;71;21450;-74
2021/01/02 11:14:38;;;;;;;13.30;6.45;;;3.00;99.90;;;;;;1939235;71;21128;-74
2021/01/02 11:17:05;;;;;;;12.15;6.12;;;3.00;99.90;;;;;;1940000;71;21131;-73
2021/01/02 11:19:31;;;;;;;13.38;6.50;;;3.20;99.90;;;;;;1970965;70;21179;-74
2021/01/02 11:21:57;;;;;;;10.72;6.12;;;3.30;99.90;;;;;;1955963;70;21031;-73
2021/01/02 11:24:23;;;;;;;9.18;6.28;;;3.30;99.90;;;;;;1972221;70;21443;-73
2021/01/02 11:26:49;;;;;;;11.63;6.08;;;3.10;99.90;;;;;;1948044;71;21049;-74
2021/01/02 11:29:15;;;;;;;13.90;6.60;;;3.00;99.90;;;;;;1966558;71;21055;-73
2021/01/02 11:31:41;;;;;;;13.65;7.45;;;2.60;99.90;;;;;;1930211;72;21070;-74
2021/01/02 11:34:08;;;;;;;13.22;7.67;;;2.80;99.90;;;;;;1928123;71;21053;-74
2021/01/02 11:36:34;;;;;;;13.62;7.03;;;2.90;99.90;;;;;;1961909;70;21132;-74
2021/01/02 11:39:00;;;;;;;12.07;7.28;;;3.10;99.90;;;;;;1975341;70;21117;-74
2021/01/02 11:41:26;;;;;;;11.57;6.60;;;3.00;99.90;;;;;;1953056;71;21031;-73
2021/01/02 11:43:52;;;;;;;14.28;6.58;;;2.90;99.90;;;;;;1959355;70;21188;-73
2021/01/02 11:46:18;;;;;;;13.32;7.60;;;2.80;99.90;;;;;;1952182;71;21511;-74
2021/01/02 11:48:44;;;;;;;10.00;6.45;;;2.80;99.90;;;;;;1959611;71;21457;-73
2021/01/02 11:51:10;;;;;;;9.98;6.30;;;2.70;99.90;;;;;;1958295;71;21465;-73
2021/01/02 11:53:37;;;;;;;10.13;6.60;;;2.80;99.90;;;;;;1967256;71;21058;-74
2021/01/02 11:56:03;;;;;;;11.22;7.65;;;2.80;99.90;;;;;;1962239;70;21120;-73
2021/01/02 11:58:29;;;;;;;13.93;7.45;;;2.70;99.90;;;;;;1955043;70;21109;-74
2021/01/02 12:00:55;;;;;;;13.88;7.87;;;2.70;99.90;;;;;;1975973;71;21057;-73
2021/01/02 12:03:21;;;;;;;15.03;7.22;;;2.70;99.90;;;;;;1962293;71;21062;-73
2021/01/02 12:05:47;;;;;;;10.43;6.72;;;2.50;99.90;;;;;;1967463;70;21066;-72
2021/01/02 12:08:14;;;;;;;12.45;7.60;;;2.60;99.90;;;;;;1951244;72;21148;-72
2021/01/02 12:10:40;;;;;;;13.35;7.83;;;2.40;99.90;;;;;;1939027;71;21470;-74
2021/01/02 12:13:06;;;;;;;10.35;6.30;;;2.20;99.90;;;;;;1951396;71;21411;-74
2021/01/02 12:15:32;;;;;;;14.03;7.33;;;2.30;99.90;;;;;;1955573;70;21473;-73
2021/01/02 12:17:58;;;;;;;16.23;7.62;;;2.50;99.90;;;;;;1976912;71;21050;-73
2021/01/02 12:20:24;;;;;;;11.15;7.00;;;2.50;99.90;;;;;;1955494;71;21127;-74
2021/01/02 12:22:50;;;;;;;19.32;8.10;;;2.50;99.90;;;;;;1968083;71;21061;-74
2021/01/02 12:25:18;;;;;;;9.75;6.53;;;2.40;99.90;;;;;;1958201;71;21123;-74
2021/01/02 12:27:44;;;;;;;13.83;8.08;;;2.50;99.90;;;;;;1957165;71;21100;-74
2021/01/02 12:30:10;;;;;;;14.73;7.35;;;2.50;99.90;;;;;;1980592;71;21128;-73
2021/01/02 12:32:36;;;;;;;10.25;6.40;;;2.60;99.90;;;;;;1949311;72;21074;-74
2021/01/02 12:35:02;;;;;;;14.55;7.50;;;2.70;99.90;;;;;;1957037;70;21117;-74
2021/01/02 12:37:28;;;;;;;8.25;6.33;;;2.70;99.90;;;;;;1984985;71;21072;-74
2021/01/02 12:39:55;;;;;;;12.23;6.60;;;2.60;99.90;;;;;;1950793;71;21592;-73